Mango, Florida
Current Conditions -  °F | °C
As of 5:35 AM on Friday 21 Nov 2014 (Local Time) from KVDF Reporting Station
Clear Clear  
Wind Chill: 52°   Ceiling: Unl
Heat Index: 52°   Visibility: 10mi
Dew Point: 34°   Wind: 3mph
Humidity: 50%   Direction: 50°NE
Pressure: 30.23"   Gusts: NA
Location:  27.98°N, 82.31°W
Report Text: KVDF 211035Z AUTO 05003KT 10SM CLR 11/01 A3023 RMK AO2
Loading
Personal Weather Stations






























Interactive Weather Map New forecast layout! Learn more

10-Day Weather Forecast

Advertisements
Track Severe Weather on mobile